<?xml version="1.0" encoding="UTF-8" standalone="no" ?>
<gpx xmlns="http://www.topografix.com/GPX/1/1" xmlns:xsi="http://www.w3.org/2001/XMLSchema-instance" xsi:schemaLocation="http://www.topografix.com/GPX/1/1 http://www.topografix.com/GPX/1/1/gpx.xsd" version="1.1" creator="VisuGPX - https://www.visugpx.com">
  <metadata>
    <name>Retour TDR depuis le parc</name>
  </metadata>
  <trk>
    <name><![CDATA[Ex  La Diane 2023   16 km]]></name>
    <trkseg>
      <trkpt lat="46.67281" lon="5.5595">
        <ele>259</ele>
        <time>2018-07-17T07:19:58.000Z</time>
        <extensions>
          <visugpx:TrkExtension xmlns:visugpx="https://www.visugpx.com/editgpx/">
            <visugpx:node>15</visugpx:node>
            </visugpx:TrkExtension>
        </extensions>
      </trkpt>
      <trkpt lat="46.67286" lon="5.55934">
        <ele>259.4</ele>
        <time>2018-07-17T07:20:08.000Z</time>
      </trkpt>
      <trkpt lat="46.67286" lon="5.55919">
        <ele>259</ele>
        <time>2018-07-17T07:20:06.000Z</time>
      </trkpt>
      <trkpt lat="46.67276" lon="5.55892">
        <ele>259</ele>
        <time>2018-07-17T07:20:14.000Z</time>
      </trkpt>
      <trkpt lat="46.67276" lon="5.55866">
        <ele>259.2</ele>
        <time>2018-07-17T07:20:24.000Z</time>
      </trkpt>
      <trkpt lat="46.67277" lon="5.55851">
        <ele>258</ele>
        <time>2018-07-17T07:20:34.000Z</time>
      </trkpt>
      <trkpt lat="46.67275" lon="5.55813">
        <ele>257</ele>
        <time>2018-07-17T07:20:44.000Z</time>
      </trkpt>
      <trkpt lat="46.67273" lon="5.5579">
        <ele>258</ele>
        <time>2018-07-17T07:20:54.000Z</time>
      </trkpt>
      <trkpt lat="46.67275" lon="5.55778">
        <ele>257</ele>
        <time>2018-07-17T07:21:04.000Z</time>
      </trkpt>
      <trkpt lat="46.67274" lon="5.55748">
        <ele>257</ele>
        <time>2018-07-17T07:21:14.000Z</time>
      </trkpt>
      <trkpt lat="46.67274" lon="5.55732">
        <ele>257</ele>
        <time>2018-07-17T07:21:24.000Z</time>
      </trkpt>
      <trkpt lat="46.67272" lon="5.5571">
        <ele>256</ele>
        <time>2018-07-17T07:21:34.000Z</time>
      </trkpt>
      <trkpt lat="46.67275" lon="5.55696">
        <ele>257</ele>
        <time>2018-07-17T07:21:44.000Z</time>
      </trkpt>
      <trkpt lat="46.67279" lon="5.55681">
        <ele>256</ele>
        <time>2018-07-17T07:21:54.000Z</time>
      </trkpt>
      <trkpt lat="46.67289" lon="5.55676">
        <ele>257.4</ele>
        <time>2018-07-17T07:22:04.000Z</time>
      </trkpt>
      <trkpt lat="46.67296" lon="5.55667">
        <ele>257</ele>
        <time>2018-07-17T07:22:14.000Z</time>
      </trkpt>
      <trkpt lat="46.67299" lon="5.55652">
        <ele>257.2</ele>
        <time>2018-07-17T07:22:24.000Z</time>
      </trkpt>
      <trkpt lat="46.67302" lon="5.55625">
        <ele>257</ele>
        <time>2018-07-17T07:22:34.000Z</time>
      </trkpt>
      <trkpt lat="46.67301" lon="5.55612">
        <ele>256.8</ele>
        <time>2018-07-17T07:22:44.000Z</time>
      </trkpt>
      <trkpt lat="46.67303" lon="5.55591">
        <ele>256</ele>
        <time>2018-07-17T07:21:44.000Z</time>
      </trkpt>
      <trkpt lat="46.67307" lon="5.55554">
        <ele>256</ele>
        <time>2018-07-17T07:21:54.000Z</time>
      </trkpt>
      <trkpt lat="46.67313" lon="5.55509">
        <ele>256</ele>
        <time>2018-07-17T07:22:03.000Z</time>
      </trkpt>
      <trkpt lat="46.6732" lon="5.55496">
        <ele>256</ele>
        <time>2018-07-17T07:22:13.000Z</time>
      </trkpt>
      <trkpt lat="46.67328" lon="5.55489">
        <ele>255</ele>
        <time>2018-07-17T07:22:09.000Z</time>
      </trkpt>
      <trkpt lat="46.67337" lon="5.55484">
        <ele>256.1</ele>
        <time>2018-07-17T07:22:19.000Z</time>
      </trkpt>
      <trkpt lat="46.6736" lon="5.5548">
        <ele>255</ele>
        <time>2018-07-17T07:22:21.000Z</time>
      </trkpt>
      <trkpt lat="46.67379" lon="5.55486">
        <ele>256</ele>
        <time>2018-07-17T07:22:28.000Z</time>
      </trkpt>
      <trkpt lat="46.67397" lon="5.55489">
        <ele>256.6</ele>
        <time>2018-07-17T07:22:38.000Z</time>
      </trkpt>
      <trkpt lat="46.67409" lon="5.55496">
        <ele>256</ele>
        <time>2018-07-17T07:22:48.000Z</time>
      </trkpt>
      <trkpt lat="46.67416" lon="5.55486">
        <ele>256.5</ele>
        <time>2018-07-17T07:22:58.000Z</time>
      </trkpt>
      <trkpt lat="46.67422" lon="5.55473">
        <ele>255</ele>
        <time>2018-07-17T07:22:53.000Z</time>
      </trkpt>
      <trkpt lat="46.67427" lon="5.55458">
        <ele>255.5</ele>
        <time>2018-07-17T07:23:03.000Z</time>
      </trkpt>
      <trkpt lat="46.67432" lon="5.55445">
        <ele>255</ele>
        <time>2018-07-17T07:23:01.000Z</time>
      </trkpt>
      <trkpt lat="46.67441" lon="5.55435">
        <ele>255</ele>
        <time>2018-07-17T07:23:11.000Z</time>
      </trkpt>
      <trkpt lat="46.67448" lon="5.55424">
        <ele>255</ele>
        <time>2018-07-17T07:23:21.000Z</time>
      </trkpt>
      <trkpt lat="46.67452" lon="5.55411">
        <ele>255</ele>
        <time>2018-07-17T07:23:31.000Z</time>
      </trkpt>
      <trkpt lat="46.67468" lon="5.55374">
        <ele>254</ele>
        <time>2018-07-17T07:23:41.000Z</time>
      </trkpt>
      <trkpt lat="46.67476" lon="5.55357">
        <ele>255</ele>
        <time>2018-07-17T07:23:51.000Z</time>
      </trkpt>
      <trkpt lat="46.67466" lon="5.55352">
        <ele>254</ele>
        <time>2018-07-17T07:23:27.000Z</time>
      </trkpt>
      <trkpt lat="46.67456" lon="5.55342">
        <ele>254.6</ele>
        <time>2018-07-17T07:23:37.000Z</time>
      </trkpt>
      <trkpt lat="46.67447" lon="5.5533">
        <ele>254</ele>
        <time>2018-07-17T07:23:35.000Z</time>
      </trkpt>
      <trkpt lat="46.67431" lon="5.55305">
        <ele>254</ele>
        <time>2018-07-17T07:23:45.000Z</time>
      </trkpt>
      <trkpt lat="46.67416" lon="5.5528">
        <ele>254</ele>
        <time>2018-07-17T07:23:55.000Z</time>
      </trkpt>
      <trkpt lat="46.67405" lon="5.5526">
        <ele>254</ele>
        <time>2018-07-17T07:24:05.000Z</time>
      </trkpt>
      <trkpt lat="46.67387" lon="5.5525">
        <ele>254</ele>
        <time>2018-07-17T07:24:15.000Z</time>
        <extensions>
          <visugpx:TrkExtension xmlns:visugpx="https://www.visugpx.com/editgpx/">
            <visugpx:node>14</visugpx:node>
            </visugpx:TrkExtension>
        </extensions>
      </trkpt>
    </trkseg>
  </trk>
</gpx>